Time;durP1;ratioP1;P1;durP2;ratioP2;P2;SDS_P1;SDS_P2;PMS_P1;PMS_P2;Temp;Humidity;BMP_temperature;BMP_pressure;BME280_temperature;BME280_humidity;BME280_pressure;Samples;Min_cycle;Max_cycle;Signal;HPM_P1;HPM_P2
2021/01/23 00:02:11;;;;;;;27.43;15.97;;;1.60;99.90;;;;;;5051378;28;20217;-91
2021/01/23 00:04:43;;;;;;;27.47;16.23;;;1.70;99.90;;;;;;5051275;28;20200;-90
2021/01/23 00:07:11;;;;;;;22.30;15.23;;;1.70;99.90;;;;;;5051334;28;20237;-90
2021/01/23 00:09:41;;;;;;;23.90;16.07;;;1.60;99.90;;;;;;5051152;28;20330;-90
2021/01/23 00:12:14;;;;;;;30.33;18.17;;;1.60;99.90;;;;;;5054795;28;20176;-91
2021/01/23 00:14:46;;;;;;;27.53;18.07;;;1.50;99.90;;;;;;5055467;28;20176;-89
2021/01/23 00:17:12;;;;;;;28.93;17.37;;;1.50;99.90;;;;;;5056706;28;20188;-90
2021/01/23 00:19:42;;;;;;;29.20;17.77;;;1.50;99.90;;;;;;5054715;28;20281;-88
2021/01/23 00:22:10;;;;;;;30.17;18.73;;;1.50;99.90;;;;;;5054729;28;20306;-90
2021/01/23 00:24:43;;;;;;;28.73;17.30;;;1.50;99.90;;;;;;5054613;28;20668;-91
2021/01/23 00:27:13;;;;;;;23.80;17.50;;;1.50;99.90;;;;;;5055948;28;20263;-90
2021/01/23 00:29:40;;;;;;;33.73;19.60;;;1.50;99.90;;;;;;5055885;28;20656;-91
2021/01/23 00:32:11;;;;;;;32.40;18.30;;;1.50;99.90;;;;;;5054636;28;20184;-92
2021/01/23 00:34:44;;;;;;;28.73;18.27;;;1.50;99.90;;;;;;5054576;28;20187;-91
2021/01/23 00:37:14;;;;;;;27.27;18.03;;;1.50;99.90;;;;;;5054597;28;20180;-91
2021/01/23 00:39:49;;;;;;;28.60;18.30;;;1.40;99.90;;;;;;5054524;28;20210;-90
2021/01/23 00:42:24;;;;;;;39.27;19.50;;;1.30;99.90;;;;;;5054481;28;20183;-90
2021/01/23 00:44:59;;;;;;;34.27;18.93;;;1.40;99.90;;;;;;5054433;28;20252;-91
2021/01/23 00:47:34;;;;;;;39.77;19.93;;;1.40;99.90;;;;;;5055805;28;20160;-90
2021/01/23 00:50:09;;;;;;;32.83;18.17;;;1.40;99.90;;;;;;5054358;28;20202;-90
2021/01/23 00:52:43;;;;;;;33.70;17.43;;;1.30;99.90;;;;;;5054207;28;20179;-89
2021/01/23 00:55:16;;;;;;;30.20;18.23;;;1.30;99.90;;;;;;5054209;28;20179;-90
2021/01/23 00:57:50;;;;;;;30.53;18.40;;;1.40;99.90;;;;;;5054064;28;20180;-91
2021/01/23 01:00:24;;;;;;;31.83;19.77;;;1.40;99.90;;;;;;5054353;28;20583;-91
2021/01/23 01:02:53;;;;;;;28.30;17.33;;;1.50;99.90;;;;;;5054140;28;20176;-89
2021/01/23 01:05:29;;;;;;;32.30;19.33;;;1.40;99.90;;;;;;5055116;28;20564;-91
2021/01/23 01:07:58;;;;;;;25.20;17.73;;;1.40;99.90;;;;;;5054758;28;20175;-91
2021/01/23 01:10:26;;;;;;;30.20;20.70;;;1.40;99.90;;;;;;5053827;28;20175;-89
2021/01/23 01:12:57;;;;;;;30.40;18.47;;;1.30;99.90;;;;;;5053959;28;20211;-90
2021/01/23 01:15:26;;;;;;;34.87;21.03;;;1.30;99.90;;;;;;5054983;28;20180;-89
2021/01/23 01:17:52;;;;;;;18.97;13.07;;;1.40;99.90;;;;;;5053601;28;20187;-90
2021/01/23 01:20:23;;;;;;;34.97;20.97;;;1.40;99.90;;;;;;5053921;28;20544;-91
2021/01/23 01:22:53;;;;;;;33.53;21.03;;;1.40;99.90;;;;;;5054704;28;20175;-89
2021/01/23 01:25:23;;;;;;;31.87;18.70;;;1.30;99.90;;;;;;5053495;28;20200;-89
2021/01/23 01:27:54;;;;;;;34.90;20.77;;;1.30;99.90;;;;;;5054068;28;20618;-89
2021/01/23 01:30:25;;;;;;;34.43;21.47;;;1.30;99.90;;;;;;5053888;28;20222;-91
2021/01/23 01:32:59;;;;;;;42.80;24.80;;;1.20;99.90;;;;;;5053581;28;20179;-91
2021/01/23 01:35:31;;;;;;;40.87;24.07;;;1.20;99.90;;;;;;5054679;28;20634;-91
2021/01/23 01:38:02;;;;;;;36.47;23.27;;;1.10;99.90;;;;;;5053347;28;20179;-91
2021/01/23 01:40:33;;;;;;;34.63;21.23;;;1.20;99.90;;;;;;5053301;28;20247;-90
2021/01/23 01:43:05;;;;;;;30.80;19.53;;;1.20;99.90;;;;;;5053675;28;20183;-90
2021/01/23 01:45:36;;;;;;;23.37;18.27;;;1.20;99.90;;;;;;5053183;28;20744;-90
2021/01/23 01:48:02;;;;;;;29.77;19.20;;;1.20;99.90;;;;;;5053251;28;20667;-91
2021/01/23 01:50:31;;;;;;;29.33;20.33;;;1.20;99.90;;;;;;5053552;28;20183;-90
2021/01/23 01:52:57;;;;;;;27.00;19.80;;;1.10;99.90;;;;;;5053251;28;20642;-91
2021/01/23 01:55:33;;;;;;;26.20;18.23;;;1.30;99.90;;;;;;5053191;28;20191;-91
2021/01/23 01:58:02;;;;;;;27.43;18.57;;;1.20;99.90;;;;;;5053722;28;20183;-92
2021/01/23 02:00:35;;;;;;;22.10;17.47;;;1.20;99.90;;;;;;5053891;28;20186;-91
2021/01/23 02:03:48;;;;;;;26.53;17.93;;;1.20;99.90;;;;;;5054045;28;20188;-91
2021/01/23 02:06:34;;;;;;;28.93;19.10;;;1.20;99.90;;;;;;5052716;28;20237;-91
2021/01/23 02:09:36;;;;;;;29.13;19.47;;;1.10;99.90;;;;;;5084407;23;20231;-89
2021/01/23 02:12:18;;;;;;;35.00;21.57;;;1.10;99.90;;;;;;5073995;28;20643;-89
2021/01/23 02:15:09;;;;;;;27.30;19.83;;;1.00;99.90;;;;;;5089887;28;20208;-89
2021/01/23 02:17:53;;;;;;;28.27;19.90;;;1.00;99.90;;;;;;5089863;28;20175;-89
2021/01/23 02:20:41;;;;;;;30.87;20.17;;;1.00;99.90;;;;;;5089628;28;20668;-89
2021/01/23 02:23:24;;;;;;;32.03;20.30;;;1.00;99.90;;;;;;5072528;28;20176;-89
2021/01/23 02:26:16;;;;;;;35.07;19.93;;;1.00;99.90;;;;;;5089335;28;20554;-89
2021/01/23 02:29:11;;;;;;;33.13;20.33;;;1.00;99.90;;;;;;5072486;28;20197;-89
2021/01/23 02:31:53;;;;;;;33.07;20.80;;;1.00;99.90;;;;;;5089505;28;20172;-89
2021/01/23 02:34:25;;;;;;;29.60;20.17;;;1.00;99.90;;;;;;5072504;28;20192;-89
2021/01/23 02:37:01;;;;;;;35.00;21.27;;;1.00;99.90;;;;;;5072243;28;20187;-89
2021/01/23 02:39:36;;;;;;;32.80;20.80;;;1.00;99.90;;;;;;5072527;28;20199;-89
2021/01/23 02:42:08;;;;;;;33.70;21.03;;;1.00;99.90;;;;;;5073533;28;20246;-89
2021/01/23 02:44:40;;;;;;;36.20;21.20;;;1.10;99.90;;;;;;5073315;28;20589;-89
2021/01/23 02:47:14;;;;;;;36.60;21.07;;;1.10;99.90;;;;;;5072883;28;20179;-89
2021/01/23 02:49:48;;;;;;;31.40;20.03;;;1.10;99.90;;;;;;5072212;28;20197;-89
2021/01/23 02:52:46;;;;;;;28.57;19.47;;;1.00;99.90;;;;;;5072048;28;20639;-89
2021/01/23 02:55:24;;;;;;;35.03;22.23;;;1.00;99.90;;;;;;5072214;28;20181;-89
2021/01/23 02:58:01;;;;;;;33.03;19.63;;;1.00;99.90;;;;;;5089015;28;20178;-89
2021/01/23 03:00:35;;;;;;;35.67;20.67;;;1.00;99.90;;;;;;5089321;28;20184;-89
2021/01/23 03:03:10;;;;;;;30.30;19.80;;;1.00;99.90;;;;;;5073293;28;20170;-89
2021/01/23 03:05:41;;;;;;;33.30;21.07;;;1.00;99.90;;;;;;5071914;28;20216;-90
2021/01/23 03:08:13;;;;;;;33.83;21.80;;;1.00;99.90;;;;;;5072220;28;20207;-89
2021/01/23 03:10:48;;;;;;;33.80;21.43;;;1.00;99.90;;;;;;5072083;28;20208;-89
2021/01/23 03:13:23;;;;;;;29.73;21.07;;;1.00;99.90;;;;;;5073534;28;20168;-89
2021/01/23 03:15:58;;;;;;;39.47;21.43;;;1.00;99.90;;;;;;5072912;28;20171;-89
2021/01/23 03:18:27;;;;;;;32.87;21.47;;;1.00;99.90;;;;;;5072641;28;20246;-89
2021/01/23 03:20:54;;;;;;;36.63;22.20;;;1.00;99.90;;;;;;5071861;28;20181;-89
2021/01/23 03:23:24;;;;;;;36.47;21.97;;;1.00;99.90;;;;;;5072141;28;20205;-89
2021/01/23 03:25:51;;;;;;;37.07;22.67;;;1.00;99.90;;;;;;5073002;28;20202;-89
2021/01/23 03:28:24;;;;;;;34.40;23.40;;;1.00;99.90;;;;;;5072901;28;20210;-89
2021/01/23 03:31:01;;;;;;;37.93;23.20;;;1.00;99.90;;;;;;5072598;28;20168;-89
2021/01/23 03:33:28;;;;;;;37.50;23.23;;;0.90;99.90;;;;;;5071776;28;20167;-89
2021/01/23 03:36:00;;;;;;;37.57;24.40;;;0.90;99.90;;;;;;5071721;28;20651;-89
2021/01/23 03:38:34;;;;;;;39.20;24.77;;;0.90;99.90;;;;;;5071861;28;20287;-89
2021/01/23 03:41:05;;;;;;;38.47;23.17;;;0.80;99.90;;;;;;5071974;28;20176;-89
2021/01/23 03:43:36;;;;;;;41.27;24.47;;;0.80;99.90;;;;;;5071646;28;20188;-89
2021/01/23 03:46:10;;;;;;;40.53;23.97;;;0.80;99.90;;;;;;5073736;28;20255;-89
2021/01/23 03:48:40;;;;;;;35.93;22.73;;;0.80;99.90;;;;;;5075365;28;20192;-89
2021/01/23 03:51:18;;;;;;;44.03;26.33;;;0.90;99.90;;;;;;5076685;28;20604;-89
2021/01/23 03:53:51;;;;;;;41.33;23.20;;;0.90;99.90;;;;;;5092299;28;20175;-89
2021/01/23 03:56:24;;;;;;;39.07;23.97;;;1.00;99.90;;;;;;5075471;28;20179;-89
2021/01/23 03:59:00;;;;;;;37.33;23.60;;;1.10;99.90;;;;;;5075109;28;20199;-90
2021/01/23 04:01:31;;;;;;;38.77;24.37;;;1.10;99.90;;;;;;5076706;28;20571;-89
2021/01/23 04:03:57;;;;;;;35.17;23.33;;;1.00;99.90;;;;;;5076232;28;20176;-89
2021/01/23 04:06:31;;;;;;;37.13;23.90;;;1.10;99.90;;;;;;5075089;28;20224;-89
2021/01/23 04:09:02;;;;;;;36.40;22.07;;;1.00;99.90;;;;;;5092080;28;20222;-89
2021/01/23 04:11:36;;;;;;;36.20;23.87;;;0.90;99.90;;;;;;5075212;28;20696;-89
2021/01/23 04:14:10;;;;;;;35.50;23.73;;;0.80;99.90;;;;;;5076133;28;20169;-89
2021/01/23 04:16:45;;;;;;;38.53;23.73;;;0.80;99.90;;;;;;5075123;28;20685;-90
2021/01/23 04:19:19;;;;;;;36.33;23.67;;;0.70;99.90;;;;;;5076029;28;20627;-89
2021/01/23 04:21:54;;;;;;;36.87;24.67;;;0.60;99.90;;;;;;5075958;28;20168;-89
2021/01/23 04:24:30;;;;;;;45.20;26.00;;;0.60;99.90;;;;;;5091524;28;20232;-89
2021/01/23 04:27:01;;;;;;;43.93;26.03;;;0.60;99.90;;;;;;5075854;28;20176;-89
2021/01/23 04:29:38;;;;;;;38.23;26.13;;;0.60;99.90;;;;;;5075699;28;20195;-90
2021/01/23 04:32:11;;;;;;;43.97;25.17;;;0.60;99.90;;;;;;5074878;28;20172;-89
2021/01/23 04:34:44;;;;;;;38.97;25.13;;;0.60;99.90;;;;;;5075828;28;20156;-89
2021/01/23 04:37:19;;;;;;;47.97;26.87;;;0.70;99.90;;;;;;5074815;28;20188;-89
2021/01/23 04:39:54;;;;;;;39.27;25.67;;;0.60;99.90;;;;;;5074468;28;20257;-89
2021/01/23 04:42:26;;;;;;;41.80;25.70;;;0.50;99.90;;;;;;5074388;28;20185;-89
2021/01/23 04:44:59;;;;;;;40.13;26.57;;;0.60;99.90;;;;;;5075616;28;20607;-89
2021/01/23 04:47:36;;;;;;;39.10;26.33;;;0.60;99.90;;;;;;5075774;28;20242;-90
2021/01/23 04:50:18;;;;;;;38.97;26.90;;;0.60;99.90;;;;;;5091126;28;20199;-89
2021/01/23 04:52:44;;;;;;;44.50;28.07;;;0.60;99.90;;;;;;5074516;28;20203;-90
2021/01/23 04:55:21;;;;;;;43.00;26.97;;;0.50;99.90;;;;;;5075486;28;20593;-90
2021/01/23 04:57:56;;;;;;;42.17;27.23;;;0.50;99.90;;;;;;5074228;28;20178;-90
2021/01/23 05:00:28;;;;;;;41.50;28.03;;;0.60;99.90;;;;;;5074122;28;20206;-90
2021/01/23 05:03:05;;;;;;;42.53;27.10;;;0.50;99.90;;;;;;5075298;28;20180;-89
2021/01/23 05:05:38;;;;;;;47.10;27.83;;;0.60;99.90;;;;;;5091129;28;20203;-89
2021/01/23 05:08:14;;;;;;;46.00;28.70;;;0.50;99.90;;;;;;5073957;28;20213;-89
2021/01/23 05:10:45;;;;;;;45.47;27.07;;;0.50;99.90;;;;;;5074258;28;20183;-89
2021/01/23 05:13:20;;;;;;;43.27;28.07;;;0.60;99.90;;;;;;5091465;28;20175;-89
2021/01/23 05:15:49;;;;;;;47.00;29.10;;;0.50;99.90;;;;;;5073742;28;20190;-90
2021/01/23 05:18:27;;;;;;;49.60;29.87;;;0.50;99.90;;;;;;5090629;28;20175;-90
2021/01/23 05:21:11;;;;;;;45.40;29.43;;;0.60;99.90;;;;;;5074115;28;20175;-90
2021/01/23 05:23:41;;;;;;;42.10;27.73;;;0.50;99.90;;;;;;5074854;28;20179;-90
2021/01/23 05:26:24;;;;;;;42.97;28.57;;;0.60;99.90;;;;;;5073784;28;20735;-90
2021/01/23 05:28:50;;;;;;;39.83;27.50;;;0.50;99.90;;;;;;5073515;28;20205;-89
2021/01/23 05:31:24;;;;;;;42.63;27.10;;;0.50;99.90;;;;;;5073555;28;20618;-89
2021/01/23 05:33:53;;;;;;;44.93;29.93;;;0.60;99.90;;;;;;5074941;28;20179;-89
2021/01/23 05:36:28;;;;;;;48.67;29.47;;;0.60;99.90;;;;;;5074546;28;20179;-89
2021/01/23 05:39:01;;;;;;;43.13;27.87;;;0.70;99.90;;;;;;5074494;28;20277;-90
2021/01/23 05:41:36;;;;;;;40.10;28.33;;;0.70;99.90;;;;;;5075250;28;20183;-90
2021/01/23 05:44:10;;;;;;;44.67;29.57;;;0.80;99.90;;;;;;5074479;28;20179;-90
2021/01/23 05:46:41;;;;;;;44.03;28.50;;;0.80;99.90;;;;;;5074426;28;20199;-90
2021/01/23 05:49:07;;;;;;;44.37;29.30;;;0.80;99.90;;;;;;5073078;28;20253;-89
2021/01/23 05:51:39;;;;;;;45.20;28.10;;;0.80;99.90;;;;;;5073062;28;20175;-89
2021/01/23 05:54:11;;;;;;;53.67;29.00;;;0.80;99.90;;;;;;5074240;28;20171;-89
2021/01/23 05:56:41;;;;;;;46.13;28.00;;;0.70;99.90;;;;;;5074156;28;20175;-89
2021/01/23 05:59:16;;;;;;;44.90;29.63;;;0.70;99.90;;;;;;5072886;28;20199;-89
2021/01/23 06:01:48;;;;;;;52.50;29.90;;;0.70;99.90;;;;;;5089881;28;20661;-89
2021/01/23 06:04:21;;;;;;;49.17;30.33;;;0.70;99.90;;;;;;5074365;28;20636;-89
2021/01/23 06:06:51;;;;;;;53.40;30.30;;;0.70;99.90;;;;;;5072998;28;20176;-89
2021/01/23 06:09:41;;;;;;;43.23;28.57;;;0.80;99.90;;;;;;5072166;28;20267;-89
2021/01/23 06:12:36;;;;;;;45.63;29.17;;;0.80;99.90;;;;;;5073820;28;20196;-90
2021/01/23 06:15:32;;;;;;;47.40;30.37;;;0.70;99.90;;;;;;5089861;28;20297;-90
2021/01/23 06:18:27;;;;;;;54.87;31.63;;;0.70;99.90;;;;;;5089569;28;20183;-90
2021/01/23 06:21:01;;;;;;;49.40;30.47;;;0.70;99.90;;;;;;5073843;28;20159;-89
2021/01/23 06:23:51;;;;;;;44.37;29.27;;;0.60;99.90;;;;;;5072874;28;20229;-90
2021/01/23 06:26:24;;;;;;;47.47;29.77;;;0.60;99.90;;;;;;5072417;28;20253;-90
2021/01/23 06:28:56;;;;;;;52.00;32.20;;;0.60;99.90;;;;;;5089254;28;20207;-89
2021/01/23 06:31:31;;;;;;;53.17;31.43;;;0.60;99.90;;;;;;5072504;28;20171;-90
2021/01/23 06:34:21;;;;;;;50.90;31.13;;;0.60;99.90;;;;;;5072776;28;20174;-89
2021/01/23 06:37:24;;;;;;;49.70;30.60;;;0.60;99.90;;;;;;5073462;28;20199;-89
2021/01/23 06:40:02;;;;;;;50.57;30.57;;;0.60;99.90;;;;;;5072197;28;20199;-89
2021/01/23 06:42:39;;;;;;;51.50;30.37;;;0.50;99.90;;;;;;5089160;28;20190;-90
2021/01/23 06:45:21;;;;;;;50.27;30.70;;;0.50;99.90;;;;;;5073446;28;20658;-89
2021/01/23 06:47:55;;;;;;;52.53;29.53;;;0.50;99.90;;;;;;5090074;28;20543;-89
2021/01/23 06:50:38;;;;;;;51.67;30.87;;;0.50;99.90;;;;;;5073356;28;20191;-89
2021/01/23 06:53:06;;;;;;;52.33;31.07;;;0.50;99.90;;;;;;5073434;28;20623;-89
2021/01/23 06:55:54;;;;;;;47.30;30.37;;;0.50;99.90;;;;;;5072093;28;20179;-90
2021/01/23 06:58:26;;;;;;;53.13;31.43;;;0.40;99.90;;;;;;5072118;28;20670;-89
2021/01/23 07:01:00;;;;;;;54.23;31.63;;;0.40;99.90;;;;;;5072421;28;20175;-90
2021/01/23 07:03:31;;;;;;;51.07;30.67;;;0.50;99.90;;;;;;5073261;28;20642;-90
2021/01/23 07:06:03;;;;;;;48.37;32.23;;;0.50;99.90;;;;;;5073102;28;20203;-89
2021/01/23 07:08:47;;;;;;;54.50;31.97;;;0.50;99.90;;;;;;5071900;28;20209;-89
2021/01/23 07:11:22;;;;;;;56.37;34.80;;;0.60;99.90;;;;;;5072565;28;20203;-90
2021/01/23 07:14:10;;;;;;;49.77;30.80;;;0.60;99.90;;;;;;5072197;28;20591;-89
2021/01/23 07:16:51;;;;;;;54.30;31.27;;;0.70;99.90;;;;;;5073184;28;20258;-90
2021/01/23 07:19:29;;;;;;;50.77;29.83;;;0.70;99.90;;;;;;5071883;28;20201;-89
2021/01/23 07:21:59;;;;;;;52.20;30.80;;;0.70;99.90;;;;;;5075368;28;20196;-90
2021/01/23 07:24:34;;;;;;;52.20;31.23;;;0.80;99.90;;;;;;5076149;28;20202;-90
2021/01/23 07:27:08;;;;;;;46.30;30.07;;;0.80;99.90;;;;;;5076389;28;20182;-89
2021/01/23 07:29:34;;;;;;;47.43;29.90;;;0.80;99.90;;;;;;5076926;28;20651;-89
2021/01/23 07:32:05;;;;;;;52.63;29.63;;;0.90;99.90;;;;;;5076976;28;20653;-89
2021/01/23 07:34:40;;;;;;;54.33;31.67;;;0.80;99.90;;;;;;5077005;28;20178;-90
2021/01/23 07:37:11;;;;;;;51.00;34.03;;;0.90;99.90;;;;;;5076874;28;20183;-89
2021/01/23 07:39:45;;;;;;;58.37;34.53;;;0.80;99.90;;;;;;5076828;28;20202;-90
2021/01/23 07:42:24;;;;;;;54.13;33.57;;;0.80;99.90;;;;;;5076979;28;20716;-90
2021/01/23 07:44:56;;;;;;;50.63;30.03;;;0.80;99.90;;;;;;5075460;28;20211;-90
2021/01/23 07:47:36;;;;;;;57.37;32.03;;;0.80;99.90;;;;;;5075805;28;20175;-90
2021/01/23 07:50:13;;;;;;;53.40;30.83;;;0.90;99.90;;;;;;5075349;28;20194;-90
2021/01/23 07:52:47;;;;;;;53.53;30.10;;;0.80;99.90;;;;;;5075685;28;20543;-90
2021/01/23 07:55:38;;;;;;;52.70;31.33;;;0.90;99.90;;;;;;5076888;28;20179;-90
2021/01/23 07:58:12;;;;;;;51.83;31.80;;;0.80;99.90;;;;;;5075373;28;20180;-90
2021/01/23 08:00:42;;;;;;;52.20;32.13;;;0.90;99.90;;;;;;5075182;28;20186;-90
2021/01/23 08:03:17;;;;;;;55.93;30.80;;;0.80;99.90;;;;;;5075344;28;20180;-90
2021/01/23 08:05:57;;;;;;;47.70;29.70;;;0.90;99.90;;;;;;5091930;28;20202;-90
2021/01/23 08:08:43;;;;;;;50.10;31.80;;;0.90;99.90;;;;;;5076209;28;20209;-89
2021/01/23 08:11:41;;;;;;;58.13;32.30;;;0.80;99.90;;;;;;5074893;28;20292;-90
2021/01/23 08:14:12;;;;;;;49.33;29.53;;;0.80;99.90;;;;;;5075239;28;20183;-89
2021/01/23 08:16:56;;;;;;;55.10;32.33;;;0.90;99.90;;;;;;5074886;28;20549;-88
2021/01/23 08:19:29;;;;;;;55.33;31.67;;;0.90;99.90;;;;;;5076410;28;20660;-89
2021/01/23 08:22:11;;;;;;;50.00;30.17;;;0.80;99.90;;;;;;5075737;28;20270;-89
2021/01/23 08:24:38;;;;;;;50.83;31.00;;;0.90;99.90;;;;;;5076085;28;20199;-88
2021/01/23 08:27:23;;;;;;;52.60;31.60;;;1.00;99.90;;;;;;5091759;28;20180;-88
2021/01/23 08:30:01;;;;;;;60.93;31.97;;;0.90;99.90;;;;;;5074736;28;20210;-88
2021/01/23 08:32:32;;;;;;;59.67;33.40;;;0.90;99.90;;;;;;5074506;28;20173;-89
2021/01/23 08:34:58;;;;;;;58.67;31.77;;;0.90;99.90;;;;;;5074798;28;20211;-89
2021/01/23 08:37:29;;;;;;;58.37;32.43;;;0.80;99.90;;;;;;5076077;28;20529;-89
2021/01/23 08:39:59;;;;;;;59.23;32.10;;;0.80;99.90;;;;;;5074472;28;20195;-89
2021/01/23 08:42:30;;;;;;;56.37;33.47;;;0.90;99.90;;;;;;5075942;28;20525;-89
2021/01/23 08:45:04;;;;;;;55.77;33.07;;;0.90;99.90;;;;;;5074680;28;20230;-88
2021/01/23 08:47:40;;;;;;;65.53;35.00;;;1.00;99.90;;;;;;5075537;28;20167;-89
2021/01/23 08:50:08;;;;;;;66.53;33.83;;;1.00;99.90;;;;;;5091886;28;20199;-89
2021/01/23 08:52:41;;;;;;;57.20;33.40;;;1.00;99.90;;;;;;5075540;28;20181;-89
2021/01/23 08:55:11;;;;;;;59.37;33.07;;;1.00;99.90;;;;;;5075488;28;20175;-89
2021/01/23 08:57:37;;;;;;;62.70;33.20;;;1.00;99.90;;;;;;5075389;28;20198;-88
2021/01/23 09:00:11;;;;;;;59.43;34.03;;;1.00;99.90;;;;;;5074557;28;20225;-89
2021/01/23 09:02:40;;;;;;;70.27;37.57;;;1.10;99.90;;;;;;5074148;28;20175;-89
2021/01/23 09:05:18;;;;;;;63.27;37.00;;;1.10;99.90;;;;;;5075214;28;20203;-88
2021/01/23 09:07:51;;;;;;;65.13;35.20;;;1.10;99.90;;;;;;5074262;28;20183;-88
2021/01/23 09:10:21;;;;;;;63.43;35.97;;;1.20;99.90;;;;;;5074427;28;20219;-88
2021/01/23 09:12:56;;;;;;;59.93;33.37;;;1.30;99.90;;;;;;5073889;28;20559;-89
2021/01/23 09:15:22;;;;;;;57.77;33.10;;;1.30;99.90;;;;;;5090964;28;20179;-88
2021/01/23 09:17:51;;;;;;;59.77;34.23;;;1.30;99.90;;;;;;5090685;28;20675;-88
2021/01/23 09:20:25;;;;;;;59.57;34.37;;;1.30;99.90;;;;;;5073626;28;20213;-88
2021/01/23 09:22:59;;;;;;;62.13;34.23;;;1.30;99.90;;;;;;5073848;28;20186;-88
2021/01/23 09:25:28;;;;;;;60.20;36.07;;;1.40;99.90;;;;;;5074872;28;20198;-88
2021/01/23 09:27:57;;;;;;;57.43;32.53;;;1.40;99.90;;;;;;5075347;28;20259;-88
2021/01/23 09:30:24;;;;;;;65.57;33.47;;;1.40;99.90;;;;;;5074316;28;20567;-88
2021/01/23 09:32:53;;;;;;;56.87;31.80;;;1.50;99.90;;;;;;5074794;28;20168;-88
2021/01/23 09:35:26;;;;;;;63.73;33.80;;;1.40;99.90;;;;;;5074740;28;20186;-88
2021/01/23 09:38:01;;;;;;;60.27;33.20;;;1.50;99.90;;;;;;5074614;28;20207;-88
2021/01/23 09:40:31;;;;;;;57.23;33.30;;;1.50;99.90;;;;;;5074891;28;20202;-88
2021/01/23 09:43:00;;;;;;;62.97;33.60;;;1.60;99.90;;;;;;5072688;28;20173;-88
2021/01/23 09:45:30;;;;;;;56.70;32.07;;;1.60;99.90;;;;;;5073205;28;20206;-88
2021/01/23 09:48:00;;;;;;;62.90;32.63;;;1.70;99.90;;;;;;5074668;28;20171;-88
2021/01/23 09:50:27;;;;;;;58.77;33.20;;;1.70;99.90;;;;;;5089974;28;20240;-88
2021/01/23 09:52:57;;;;;;;57.43;33.63;;;1.80;99.90;;;;;;5074264;28;20277;-87
2021/01/23 09:55:30;;;;;;;56.87;34.00;;;1.90;99.90;;;;;;5090210;28;20187;-88
2021/01/23 09:57:58;;;;;;;64.60;34.00;;;2.00;99.90;;;;;;5073109;28;20183;-88
2021/01/23 10:00:29;;;;;;;61.67;33.17;;;2.00;99.90;;;;;;5073173;28;20175;-88
2021/01/23 10:02:56;;;;;;;55.37;33.33;;;2.00;99.90;;;;;;5073018;28;20268;-88
2021/01/23 10:05:24;;;;;;;54.33;31.90;;;2.10;99.90;;;;;;5074096;28;20278;-88
2021/01/23 10:07:55;;;;;;;55.73;31.50;;;2.10;99.90;;;;;;5072845;28;20661;-88
2021/01/23 10:10:21;;;;;;;54.87;30.07;;;2.20;99.90;;;;;;5072984;28;20223;-88
2021/01/23 10:12:51;;;;;;;59.43;33.53;;;2.20;99.90;;;;;;5072821;28;20183;-88
2021/01/23 10:15:17;;;;;;;47.83;28.40;;;2.20;99.90;;;;;;5072683;28;20181;-88
2021/01/23 10:17:43;;;;;;;54.10;31.37;;;2.30;99.90;;;;;;5072971;28;20172;-88
2021/01/23 10:20:13;;;;;;;51.97;28.53;;;2.30;99.90;;;;;;5073871;28;20230;-88
2021/01/23 10:22:42;;;;;;;54.63;31.03;;;2.40;99.90;;;;;;5072820;28;20185;-88
2021/01/23 10:25:13;;;;;;;54.37;32.27;;;2.30;99.90;;;;;;5073694;28;20290;-88
2021/01/23 10:27:41;;;;;;;49.87;29.63;;;2.40;99.90;;;;;;5072599;28;20234;-88
2021/01/23 10:30:11;;;;;;;54.77;31.80;;;2.40;99.90;;;;;;5072309;28;20228;-88
2021/01/23 10:32:41;;;;;;;46.10;28.47;;;2.50;99.90;;;;;;5072717;28;20269;-88
2021/01/23 10:35:10;;;;;;;51.50;28.90;;;2.50;99.90;;;;;;5073873;28;20177;-88
2021/01/23 10:37:48;;;;;;;54.00;31.40;;;2.60;99.90;;;;;;5073522;28;20179;-88
2021/01/23 10:40:21;;;;;;;45.60;29.77;;;2.70;99.90;;;;;;5089061;28;20201;-88
2021/01/23 10:42:56;;;;;;;51.50;28.93;;;2.70;99.90;;;;;;5089224;28;20753;-89
2021/01/23 10:45:27;;;;;;;51.90;29.60;;;2.80;99.90;;;;;;5072274;28;20236;-89
2021/01/23 10:48:01;;;;;;;50.17;29.33;;;2.90;99.90;;;;;;5073434;28;20176;-88
2021/01/23 10:50:35;;;;;;;47.93;27.13;;;3.10;99.90;;;;;;5072172;28;20187;-89
2021/01/23 10:53:01;;;;;;;39.87;26.00;;;3.20;99.90;;;;;;5089252;28;20177;-89
2021/01/23 10:55:31;;;;;;;42.27;26.20;;;3.30;99.90;;;;;;5071601;28;20196;-89
2021/01/23 10:57:58;;;;;;;42.33;23.50;;;3.30;99.90;;;;;;5073269;28;20213;-89
2021/01/23 11:00:27;;;;;;;47.77;24.80;;;3.50;99.90;;;;;;5073269;28;20652;-89
2021/01/23 11:02:52;;;;;;;24.50;16.03;;;3.60;99.90;;;;;;5088987;28;20177;-88
2021/01/23 11:05:18;;;;;;;38.13;22.77;;;3.70;99.90;;;;;;5072049;28;20210;-88
2021/01/23 11:07:43;;;;;;;28.13;18.20;;;3.80;99.90;;;;;;5088856;28;20187;-88
2021/01/23 11:10:10;;;;;;;29.13;17.00;;;3.80;99.90;;;;;;5073863;28;20230;-88
2021/01/23 11:12:35;;;;;;;28.43;17.50;;;3.90;99.90;;;;;;5072073;28;20268;-88
2021/01/23 11:15:01;;;;;;;35.37;18.67;;;3.80;99.90;;;;;;5072994;28;20331;-88
2021/01/23 11:17:27;;;;;;;33.73;21.17;;;3.80;99.90;;;;;;5071911;28;20178;-89
2021/01/23 11:20:01;;;;;;;33.57;19.43;;;3.80;99.90;;;;;;5073066;28;20196;-89
2021/01/23 11:22:28;;;;;;;26.87;17.10;;;3.90;99.90;;;;;;5071892;28;20181;-89
2021/01/23 11:25:01;;;;;;;37.40;20.67;;;3.80;99.90;;;;;;5071911;28;20582;-88
2021/01/23 11:27:35;;;;;;;35.13;20.67;;;3.90;99.90;;;;;;5071803;28;20665;-88
2021/01/23 11:30:01;;;;;;;34.30;19.00;;;3.90;99.90;;;;;;5072061;28;20224;-88
2021/01/23 11:32:28;;;;;;;30.13;17.17;;;3.90;99.90;;;;;;5071822;28;20209;-88
2021/01/23 11:34:53;;;;;;;27.97;17.67;;;4.00;99.90;;;;;;5071734;28;20186;-88
2021/01/23 11:37:22;;;;;;;29.40;18.27;;;3.90;99.90;;;;;;5071704;28;20241;-88
2021/01/23 11:39:52;;;;;;;28.53;16.60;;;4.00;99.90;;;;;;5071583;28;20241;-88
2021/01/23 11:42:22;;;;;;;26.97;15.30;;;4.10;99.90;;;;;;5072809;28;20185;-88
2021/01/23 11:44:54;;;;;;;28.87;17.20;;;4.10;99.90;;;;;;5071610;28;20203;-88
2021/01/23 11:47:23;;;;;;;21.37;13.87;;;4.10;99.90;;;;;;5072802;28;20268;-88
2021/01/23 11:49:49;;;;;;;27.70;18.43;;;4.10;99.90;;;;;;5073046;28;20723;-88
2021/01/23 11:52:21;;;;;;;24.37;15.37;;;4.10;99.90;;;;;;5071597;28;20185;-88
2021/01/23 11:54:52;;;;;;;21.03;12.73;;;4.20;99.90;;;;;;5088943;28;20176;-88
2021/01/23 11:57:25;;;;;;;27.93;17.40;;;4.20;99.90;;;;;;5072653;28;20174;-88
2021/01/23 11:59:54;;;;;;;26.90;17.20;;;4.30;99.90;;;;;;5088308;28;20200;-89
2021/01/23 12:02:23;;;;;;;20.23;13.83;;;4.40;99.90;;;;;;5072661;28;20183;-88
2021/01/23 12:04:51;;;;;;;28.77;15.13;;;4.40;99.90;;;;;;5072589;28;20248;-89
2021/01/23 12:07:21;;;;;;;16.87;10.23;;;4.40;99.90;;;;;;5073636;28;20284;-88
2021/01/23 12:09:47;;;;;;;25.60;15.83;;;4.40;99.90;;;;;;5074945;28;20209;-88
2021/01/23 12:12:17;;;;;;;28.87;16.07;;;4.30;99.90;;;;;;5092305;28;20182;-88
2021/01/23 12:14:48;;;;;;;26.77;14.37;;;4.40;99.90;;;;;;5075029;28;20552;-88
2021/01/23 12:17:14;;;;;;;21.43;11.40;;;4.40;99.90;;;;;;5076515;28;20643;-88
2021/01/23 12:19:42;;;;;;;23.97;15.23;;;4.40;99.90;;;;;;5076431;28;20236;-88
2021/01/23 12:22:10;;;;;;;25.87;15.73;;;4.60;99.90;;;;;;5074945;28;20276;-88
2021/01/23 12:24:36;;;;;;;20.57;13.27;;;4.90;99.90;;;;;;5074880;28;20238;-88
2021/01/23 12:27:07;;;;;;;17.07;11.80;;;5.00;99.90;;;;;;5076681;28;20198;-88
2021/01/23 12:29:33;;;;;;;20.27;10.73;;;5.20;99.90;;;;;;5074839;28;20542;-88
2021/01/23 12:32:05;;;;;;;27.20;14.20;;;5.30;99.90;;;;;;5074572;28;20182;-87
2021/01/23 12:34:31;;;;;;;17.73;12.90;;;5.50;99.90;;;;;;5091461;28;20183;-88
2021/01/23 12:36:57;;;;;;;20.23;13.00;;;5.40;99.90;;;;;;5075004;28;20182;-88
2021/01/23 12:39:23;;;;;;;24.27;13.13;;;5.50;99.90;;;;;;5074408;28;20257;-88
2021/01/23 12:41:50;;;;;;;18.27;11.87;;;5.50;99.90;;;;;;5074607;28;20175;-88
2021/01/23 12:44:17;;;;;;;20.83;12.93;;;5.50;99.90;;;;;;5074632;28;20171;-88
2021/01/23 12:46:44;;;;;;;25.40;14.20;;;5.60;99.90;;;;;;5091262;28;20175;-88
2021/01/23 12:49:10;;;;;;;16.83;9.67;;;5.60;99.90;;;;;;5074289;28;20196;-88
2021/01/23 12:51:36;;;;;;;12.53;8.93;;;5.50;99.90;;;;;;5074355;28;20178;-88
2021/01/23 12:54:03;;;;;;;18.53;12.00;;;5.50;99.90;;;;;;5074274;28;20230;-88
2021/01/23 12:56:29;;;;;;;20.10;10.53;;;5.50;99.90;;;;;;5074240;28;20182;-88
2021/01/23 12:58:55;;;;;;;19.53;11.63;;;5.60;99.90;;;;;;5074320;28;20194;-89
2021/01/23 13:01:22;;;;;;;12.27;9.20;;;5.60;99.90;;;;;;5074266;28;20190;-88
2021/01/23 13:03:48;;;;;;;16.60;11.17;;;5.60;99.90;;;;;;5091211;28;20176;-88
2021/01/23 13:06:14;;;;;;;15.73;9.60;;;5.60;99.90;;;;;;5074900;28;20211;-88
2021/01/23 13:08:40;;;;;;;17.00;12.57;;;5.60;99.90;;;;;;5073954;28;20207;-88